Port Jefferson, NY (11777)

6:14 AM EST on February 07, 2016 (GMT -0500)
Canyon Creek | | Change Station
CLOSE
Current Station
Personal Weather Station
Location: Port Jefferson, NY
Elevation: 233 ft
Nearby Weather Stations

Elev 233 ft 40.94 °N, 73.06 °W | Updated 2 seconds ago

Clear
Clear
29.1 °F
Feels Like 29 °F
N
0.9
Wind Variable Wind from NE
Gusts 2.2 mph

Today
High -- | Low -- °F
--% Chance of Precip.
Yesterday
High -- | Low -- °F
Precip. -- in
Pressure 30.18 in
Visibility 8.0 miles
Clouds Clear
Windchill 29 °F
Dew Point 22 °F
Humidity 75%
Rainfall 0.00 in
Snow Depth Not available.
6:56 AM 5:16 PM
Waning Crescent, 2% visible
METAR KISP 071056Z 00000KT 8SM CLR M07/M08 A3018 RMK AO2 SLP219 FIRST AUGMENTED OBSERVATION T10671078 $
Pressure 30.18 in
Visibility 8.0 miles
Clouds Clear
Windchill 29 °F
Dew Point 22 °F
Humidity 75%
Rainfall 0.00 in
Snow Depth Not available.
6:56 AM 5:16 PM
Waning Crescent, 2% visible
METAR KISP 071056Z 00000KT 8SM CLR M07/M08 A3018 RMK AO2 SLP219 FIRST AUGMENTED OBSERVATION T10671078 $

10-Day Weather Forecast

Almanac

Astronomy

Feb. 07, 2016 Rise Set
Actual Time
Civil Twilight
Nautical Twilight
Astronomical Twilight
Moon
Length of Visible Light
Length of Day
Tomorrow will be .
, % of the Moon is Illuminated

Today's Extremes

State Highs State Lows

Community

WunderPhotos

Upload Photos

1,891,170 photos uploaded!

WunderBlog® & News

Nearby

Air Quality

  Air Quality AQ Index Pollutant
Not available.

Snow Depth

Station Depth Elevation

Earthquake Activity

City Distance Mag. Time & Date
Minimum magnitude displayed is 2.5.

Coastal Water Temperatures

Place Temperature

Stations

Nearby Weather Stations

Station Location Temp. Windchill Dew Point Humidity Wind Precip. Elev Updated Type
                   

Watches & Warnings

There are currently no watches in effect.